sensor_id;sensor_type;location;lat;lon;timestamp;temperature;humidity
51619;DHT22;38518;53.164;5.430;2022-12-07T00:01:46;4.40;99.90
51619;DHT22;38518;53.164;5.430;2022-12-07T00:04:15;4.40;99.90
51619;DHT22;38518;53.164;5.430;2022-12-07T00:06:43;4.40;99.90
51619;DHT22;38518;53.164;5.430;2022-12-07T00:09:14;4.10;99.90
51619;DHT22;38518;53.164;5.430;2022-12-07T00:11:40;4.10;99.90
51619;DHT22;38518;53.164;5.430;2022-12-07T00:14:09;2.80;99.90
51619;DHT22;38518;53.164;5.430;2022-12-07T00:16:35;4.00;99.90
51619;DHT22;38518;53.164;5.430;2022-12-07T00:19:03;4.10;99.90
51619;DHT22;38518;53.164;5.430;2022-12-07T00:21:31;4.40;99.90
51619;DHT22;38518;53.164;5.430;2022-12-07T00:23:58;6.50;99.90
51619;DHT22;38518;53.164;5.430;2022-12-07T00:26:27;4.20;99.90
51619;DHT22;38518;53.164;5.430;2022-12-07T00:28:55;6.10;99.90
51619;DHT22;38518;53.164;5.430;2022-12-07T00:31:23;6.50;99.90
51619;DHT22;38518;53.164;5.430;2022-12-07T00:33:53;4.90;99.90
51619;DHT22;38518;53.164;5.430;2022-12-07T00:36:21;5.00;99.90
51619;DHT22;38518;53.164;5.430;2022-12-07T00:38:47;6.20;1.00
51619;DHT22;38518;53.164;5.430;2022-12-07T00:41:15;5.40;1.00
51619;DHT22;38518;53.164;5.430;2022-12-07T00:43:42;4.70;1.00
51619;DHT22;38518;53.164;5.430;2022-12-07T00:46:09;5.30;1.00
51619;DHT22;38518;53.164;5.430;2022-12-07T00:48:35;6.30;1.00
51619;DHT22;38518;53.164;5.430;2022-12-07T00:51:02;5.00;1.00
51619;DHT22;38518;53.164;5.430;2022-12-07T00:53:28;4.70;1.00
51619;DHT22;38518;53.164;5.430;2022-12-07T00:58:23;1.80;1.00
51619;DHT22;38518;53.164;5.430;2022-12-07T01:03:17;1.40;1.00
51619;DHT22;38518;53.164;5.430;2022-12-07T01:05:51;5.50;1.00
51619;DHT22;38518;53.164;5.430;2022-12-07T01:08:17;4.70;1.00
51619;DHT22;38518;53.164;5.430;2022-12-07T01:10:42;5.90;99.90
51619;DHT22;38518;53.164;5.430;2022-12-07T01:13:08;5.50;99.90
51619;DHT22;38518;53.164;5.430;2022-12-07T01:15:34;4.60;99.90
51619;DHT22;38518;53.164;5.430;2022-12-07T01:18:00;5.10;99.90
51619;DHT22;38518;53.164;5.430;2022-12-07T01:20:25;5.40;99.90
51619;DHT22;38518;53.164;5.430;2022-12-07T01:22:51;4.70;99.90
51619;DHT22;38518;53.164;5.430;2022-12-07T01:25:17;5.20;99.90
51619;DHT22;38518;53.164;5.430;2022-12-07T01:27:43;6.20;99.90
51619;DHT22;38518;53.164;5.430;2022-12-07T01:30:10;5.90;99.90
51619;DHT22;38518;53.164;5.430;2022-12-07T01:35:04;4.70;99.90
51619;DHT22;38518;53.164;5.430;2022-12-07T01:37:35;4.70;99.90
51619;DHT22;38518;53.164;5.430;2022-12-07T01:40:02;5.40;99.90
51619;DHT22;38518;53.164;5.430;2022-12-07T01:42:28;5.00;99.90
51619;DHT22;38518;53.164;5.430;2022-12-07T01:47:52;4.40;99.90
51619;DHT22;38518;53.164;5.430;2022-12-07T01:50:20;4.60;99.90
51619;DHT22;38518;53.164;5.430;2022-12-07T01:52:48;4.50;99.90
51619;DHT22;38518;53.164;5.430;2022-12-07T01:55:15;4.30;99.90
51619;DHT22;38518;53.164;5.430;2022-12-07T02:00:12;5.20;99.90
51619;DHT22;38518;53.164;5.430;2022-12-07T02:05:27;6.10;99.90
51619;DHT22;38518;53.164;5.430;2022-12-07T02:07:55;5.00;99.90
51619;DHT22;38518;53.164;5.430;2022-12-07T02:10:25;5.70;99.90
51619;DHT22;38518;53.164;5.430;2022-12-07T02:13:08;4.40;99.90
51619;DHT22;38518;53.164;5.430;2022-12-07T02:26:05;4.20;99.90
51619;DHT22;38518;53.164;5.430;2022-12-07T02:29:21;4.60;99.90
51619;DHT22;38518;53.164;5.430;2022-12-07T02:31:25;6.30;99.90
51619;DHT22;38518;53.164;5.430;2022-12-07T02:34:39;5.50;99.90
51619;DHT22;38518;53.164;5.430;2022-12-07T02:37:16;4.50;99.90
51619;DHT22;38518;53.164;5.430;2022-12-07T02:39:48;5.10;99.90
51619;DHT22;38518;53.164;5.430;2022-12-07T02:42:21;5.30;99.90
51619;DHT22;38518;53.164;5.430;2022-12-07T02:44:50;4.60;99.90
51619;DHT22;38518;53.164;5.430;2022-12-07T02:47:18;5.40;99.90
51619;DHT22;38518;53.164;5.430;2022-12-07T02:49:46;4.10;99.90
51619;DHT22;38518;53.164;5.430;2022-12-07T02:52:12;4.20;99.90
51619;DHT22;38518;53.164;5.430;2022-12-07T02:54:38;5.70;99.90
51619;DHT22;38518;53.164;5.430;2022-12-07T03:00:09;3.70;99.90
51619;DHT22;38518;53.164;5.430;2022-12-07T03:02:50;3.80;99.90
51619;DHT22;38518;53.164;5.430;2022-12-07T03:05:21;3.80;99.90
51619;DHT22;38518;53.164;5.430;2022-12-07T03:08:14;5.20;99.90
51619;DHT22;38518;53.164;5.430;2022-12-07T03:11:03;4.20;99.90
51619;DHT22;38518;53.164;5.430;2022-12-07T03:13:54;4.20;99.90
51619;DHT22;38518;53.164;5.430;2022-12-07T03:16:39;3.80;99.90
51619;DHT22;38518;53.164;5.430;2022-12-07T03:19:10;3.90;99.90
51619;DHT22;38518;53.164;5.430;2022-12-07T03:22:03;4.20;99.90
51619;DHT22;38518;53.164;5.430;2022-12-07T03:24:34;3.70;99.90
51619;DHT22;38518;53.164;5.430;2022-12-07T03:27:15;5.10;99.90
51619;DHT22;38518;53.164;5.430;2022-12-07T03:29:49;3.70;99.90
51619;DHT22;38518;53.164;5.430;2022-12-07T03:32:44;4.20;99.90
51619;DHT22;38518;53.164;5.430;2022-12-07T03:35:25;4.00;99.90
51619;DHT22;38518;53.164;5.430;2022-12-07T03:37:56;3.70;99.90
51619;DHT22;38518;53.164;5.430;2022-12-07T03:40:39;3.80;99.90
51619;DHT22;38518;53.164;5.430;2022-12-07T03:43:08;5.30;99.90
51619;DHT22;38518;53.164;5.430;2022-12-07T03:45:43;5.30;99.90
51619;DHT22;38518;53.164;5.430;2022-12-07T03:48:22;3.90;99.90
51619;DHT22;38518;53.164;5.430;2022-12-07T03:51:06;4.30;99.90
51619;DHT22;38518;53.164;5.430;2022-12-07T03:56:09;3.80;99.90
51619;DHT22;38518;53.164;5.430;2022-12-07T03:58:36;5.10;99.90
51619;DHT22;38518;53.164;5.430;2022-12-07T04:01:02;4.90;99.90
51619;DHT22;38518;53.164;5.430;2022-12-07T04:03:28;5.50;99.90
51619;DHT22;38518;53.164;5.430;2022-12-07T04:05:54;4.70;99.90
51619;DHT22;38518;53.164;5.430;2022-12-07T04:08:20;4.30;99.90
51619;DHT22;38518;53.164;5.430;2022-12-07T04:10:46;4.80;99.90
51619;DHT22;38518;53.164;5.430;2022-12-07T04:13:12;5.70;99.90
51619;DHT22;38518;53.164;5.430;2022-12-07T04:15:37;4.20;99.90
51619;DHT22;38518;53.164;5.430;2022-12-07T04:18:03;4.30;99.90
51619;DHT22;38518;53.164;5.430;2022-12-07T04:20:29;4.50;99.90
51619;DHT22;38518;53.164;5.430;2022-12-07T04:22:57;5.10;99.90
51619;DHT22;38518;53.164;5.430;2022-12-07T04:25:23;4.00;99.90
51619;DHT22;38518;53.164;5.430;2022-12-07T04:27:49;5.70;99.90
51619;DHT22;38518;53.164;5.430;2022-12-07T04:30:15;4.60;99.90
51619;DHT22;38518;53.164;5.430;2022-12-07T04:32:43;4.10;99.90
51619;DHT22;38518;53.164;5.430;2022-12-07T04:35:08;4.20;99.90
51619;DHT22;38518;53.164;5.430;2022-12-07T04:37:34;4.40;99.90
51619;DHT22;38518;53.164;5.430;2022-12-07T04:40:00;4.20;99.90
51619;DHT22;38518;53.164;5.430;2022-12-07T04:42:26;5.30;99.90
51619;DHT22;38518;53.164;5.430;2022-12-07T04:44:52;4.40;99.90
51619;DHT22;38518;53.164;5.430;2022-12-07T04:47:18;6.00;99.90
51619;DHT22;38518;53.164;5.430;2022-12-07T04:49:43;4.70;99.90
51619;DHT22;38518;53.164;5.430;2022-12-07T04:52:09;5.30;35.80
51619;DHT22;38518;53.164;5.430;2022-12-07T04:54:35;2.40;29.20
51619;DHT22;38518;53.164;5.430;2022-12-07T04:57:01;4.20;45.80
51619;DHT22;38518;53.164;5.430;2022-12-07T04:59:26;4.90;76.80
51619;DHT22;38518;53.164;5.430;2022-12-07T05:01:52;4.10;76.90
51619;DHT22;38518;53.164;5.430;2022-12-07T05:04:18;4.50;96.00
51619;DHT22;38518;53.164;5.430;2022-12-07T05:06:44;5.00;88.00
51619;DHT22;38518;53.164;5.430;2022-12-07T05:09:10;4.30;80.80
51619;DHT22;38518;53.164;5.430;2022-12-07T05:11:39;4.30;75.40
51619;DHT22;38518;53.164;5.430;2022-12-07T05:14:15;4.70;84.90
51619;DHT22;38518;53.164;5.430;2022-12-07T05:16:42;3.60;84.80
51619;DHT22;38518;53.164;5.430;2022-12-07T05:19:09;3.60;89.40
51619;DHT22;38518;53.164;5.430;2022-12-07T05:21:36;3.60;99.90
51619;DHT22;38518;53.164;5.430;2022-12-07T05:24:02;5.00;99.90
51619;DHT22;38518;53.164;5.430;2022-12-07T05:26:28;3.90;99.90
51619;DHT22;38518;53.164;5.430;2022-12-07T05:28:55;4.80;99.90
51619;DHT22;38518;53.164;5.430;2022-12-07T05:31:22;3.60;99.90
51619;DHT22;38518;53.164;5.430;2022-12-07T05:33:48;4.20;99.90
51619;DHT22;38518;53.164;5.430;2022-12-07T05:36:14;3.40;99.90
51619;DHT22;38518;53.164;5.430;2022-12-07T05:38:40;4.80;99.90
51619;DHT22;38518;53.164;5.430;2022-12-07T05:41:07;4.50;99.90
51619;DHT22;38518;53.164;5.430;2022-12-07T05:43:53;3.40;99.90
51619;DHT22;38518;53.164;5.430;2022-12-07T05:46:19;5.10;99.90
51619;DHT22;38518;53.164;5.430;2022-12-07T05:48:45;3.30;99.90
51619;DHT22;38518;53.164;5.430;2022-12-07T05:51:11;5.00;99.90
51619;DHT22;38518;53.164;5.430;2022-12-07T05:53:36;4.50;99.90
51619;DHT22;38518;53.164;5.430;2022-12-07T05:56:02;3.80;99.90
51619;DHT22;38518;53.164;5.430;2022-12-07T05:58:28;3.80;99.90
51619;DHT22;38518;53.164;5.430;2022-12-07T06:01:12;4.50;99.90
51619;DHT22;38518;53.164;5.430;2022-12-07T06:06:06;5.20;99.90
51619;DHT22;38518;53.164;5.430;2022-12-07T06:08:31;4.20;99.90
51619;DHT22;38518;53.164;5.430;2022-12-07T06:10:57;4.20;99.90
51619;DHT22;38518;53.164;5.430;2022-12-07T06:13:41;4.10;99.70
51619;DHT22;38518;53.164;5.430;2022-12-07T06:16:07;4.70;90.30
51619;DHT22;38518;53.164;5.430;2022-12-07T06:18:33;5.90;96.80
51619;DHT22;38518;53.164;5.430;2022-12-07T06:20:59;4.30;99.90
51619;DHT22;38518;53.164;5.430;2022-12-07T06:23:24;4.00;93.10
51619;DHT22;38518;53.164;5.430;2022-12-07T06:25:50;5.00;99.90
51619;DHT22;38518;53.164;5.430;2022-12-07T06:28:16;6.00;99.90
51619;DHT22;38518;53.164;5.430;2022-12-07T06:30:42;4.20;99.90
51619;DHT22;38518;53.164;5.430;2022-12-07T06:33:07;3.90;99.90
51619;DHT22;38518;53.164;5.430;2022-12-07T06:35:33;4.30;99.90
51619;DHT22;38518;53.164;5.430;2022-12-07T06:37:59;5.70;55.80
51619;DHT22;38518;53.164;5.430;2022-12-07T06:40:25;4.30;47.10
51619;DHT22;38518;53.164;5.430;2022-12-07T06:42:51;4.10;7.30
51619;DHT22;38518;53.164;5.430;2022-12-07T06:45:16;5.10;59.70
51619;DHT22;38518;53.164;5.430;2022-12-07T06:47:42;4.10;28.10
51619;DHT22;38518;53.164;5.430;2022-12-07T06:50:08;4.60;1.00
51619;DHT22;38518;53.164;5.430;2022-12-07T06:52:34;4.70;1.00
51619;DHT22;38518;53.164;5.430;2022-12-07T06:55:00;4.00;1.00
51619;DHT22;38518;53.164;5.430;2022-12-07T06:57:26;5.50;29.40
51619;DHT22;38518;53.164;5.430;2022-12-07T06:59:52;3.80;5.20
51619;DHT22;38518;53.164;5.430;2022-12-07T07:02:18;3.70;16.10
51619;DHT22;38518;53.164;5.430;2022-12-07T07:04:44;5.50;51.10
51619;DHT22;38518;53.164;5.430;2022-12-07T07:07:09;4.40;49.80
51619;DHT22;38518;53.164;5.430;2022-12-07T07:09:35;5.30;51.50
51619;DHT22;38518;53.164;5.430;2022-12-07T07:12:01;4.50;67.10
51619;DHT22;38518;53.164;5.430;2022-12-07T07:14:27;3.90;49.80
51619;DHT22;38518;53.164;5.430;2022-12-07T07:17:09;5.00;85.10
51619;DHT22;38518;53.164;5.430;2022-12-07T07:19:35;5.20;47.90
51619;DHT22;38518;53.164;5.430;2022-12-07T07:22:05;4.80;28.20
51619;DHT22;38518;53.164;5.430;2022-12-07T07:24:52;4.90;34.70
51619;DHT22;38518;53.164;5.430;2022-12-07T07:27:18;5.60;27.60
51619;DHT22;38518;53.164;5.430;2022-12-07T07:29:44;5.30;76.50
51619;DHT22;38518;53.164;5.430;2022-12-07T07:32:09;4.50;86.30
51619;DHT22;38518;53.164;5.430;2022-12-07T07:34:35;3.40;51.20
51619;DHT22;38518;53.164;5.430;2022-12-07T07:37:01;4.30;97.60
51619;DHT22;38518;53.164;5.430;2022-12-07T07:39:27;3.50;98.50
51619;DHT22;38518;53.164;5.430;2022-12-07T07:41:55;5.60;99.90
51619;DHT22;38518;53.164;5.430;2022-12-07T07:44:21;3.20;99.90
51619;DHT22;38518;53.164;5.430;2022-12-07T07:46:47;3.40;99.90
51619;DHT22;38518;53.164;5.430;2022-12-07T07:49:15;4.90;99.90
51619;DHT22;38518;53.164;5.430;2022-12-07T07:51:41;5.10;99.90
51619;DHT22;38518;53.164;5.430;2022-12-07T07:54:06;4.40;99.90
51619;DHT22;38518;53.164;5.430;2022-12-07T07:56:35;3.80;99.90
51619;DHT22;38518;53.164;5.430;2022-12-07T07:59:01;3.60;98.40
51619;DHT22;38518;53.164;5.430;2022-12-07T08:01:27;5.80;52.20
51619;DHT22;38518;53.164;5.430;2022-12-07T08:03:53;4.80;51.80
51619;DHT22;38518;53.164;5.430;2022-12-07T08:06:18;3.30;11.10
51619;DHT22;38518;53.164;5.430;2022-12-07T08:08:46;3.90;1.00
51619;DHT22;38518;53.164;5.430;2022-12-07T08:11:12;4.10;1.00
51619;DHT22;38518;53.164;5.430;2022-12-07T08:13:37;4.00;1.00
51619;DHT22;38518;53.164;5.430;2022-12-07T08:16:05;4.60;1.00
51619;DHT22;38518;53.164;5.430;2022-12-07T08:18:35;4.70;1.00
51619;DHT22;38518;53.164;5.430;2022-12-07T08:21:01;5.30;1.00
51619;DHT22;38518;53.164;5.430;2022-12-07T08:23:32;4.50;1.00
51619;DHT22;38518;53.164;5.430;2022-12-07T08:26:03;4.50;1.00
51619;DHT22;38518;53.164;5.430;2022-12-07T08:28:30;4.80;99.90
51619;DHT22;38518;53.164;5.430;2022-12-07T08:31:05;4.80;1.00
51619;DHT22;38518;53.164;5.430;2022-12-07T08:33:39;4.50;1.00
51619;DHT22;38518;53.164;5.430;2022-12-07T08:36:16;4.60;1.00
51619;DHT22;38518;53.164;5.430;2022-12-07T08:38:45;5.90;1.00
51619;DHT22;38518;53.164;5.430;2022-12-07T08:41:11;5.30;1.00
51619;DHT22;38518;53.164;5.430;2022-12-07T08:43:39;5.30;1.00
51619;DHT22;38518;53.164;5.430;2022-12-07T08:46:10;4.50;1.00
51619;DHT22;38518;53.164;5.430;2022-12-07T08:48:41;4.50;1.00
51619;DHT22;38518;53.164;5.430;2022-12-07T08:51:12;5.80;1.00
51619;DHT22;38518;53.164;5.430;2022-12-07T08:53:42;5.20;1.00
51619;DHT22;38518;53.164;5.430;2022-12-07T08:56:12;5.10;1.00
51619;DHT22;38518;53.164;5.430;2022-12-07T08:58:42;5.70;1.00
51619;DHT22;38518;53.164;5.430;2022-12-07T09:01:10;4.30;1.00
51619;DHT22;38518;53.164;5.430;2022-12-07T09:03:36;4.70;1.00
51619;DHT22;38518;53.164;5.430;2022-12-07T09:06:02;4.80;1.00
51619;DHT22;38518;53.164;5.430;2022-12-07T09:08:46;3.30;1.00
51619;DHT22;38518;53.164;5.430;2022-12-07T09:11:13;5.10;6.50
51619;DHT22;38518;53.164;5.430;2022-12-07T09:13:38;4.80;1.00
51619;DHT22;38518;53.164;5.430;2022-12-07T09:16:04;5.00;1.00
51619;DHT22;38518;53.164;5.430;2022-12-07T09:18:30;5.20;1.00
51619;DHT22;38518;53.164;5.430;2022-12-07T09:20:56;5.40;1.00
51619;DHT22;38518;53.164;5.430;2022-12-07T09:23:25;6.80;1.00
51619;DHT22;38518;53.164;5.430;2022-12-07T09:25:51;5.80;7.90
51619;DHT22;38518;53.164;5.430;2022-12-07T09:28:19;5.80;29.90
51619;DHT22;38518;53.164;5.430;2022-12-07T09:30:57;6.60;1.00
51619;DHT22;38518;53.164;5.430;2022-12-07T09:33:29;9.70;1.00
51619;DHT22;38518;53.164;5.430;2022-12-07T09:36:02;8.90;99.90
51619;DHT22;38518;53.164;5.430;2022-12-07T09:38:36;8.90;99.90
51619;DHT22;38518;53.164;5.430;2022-12-07T09:41:06;9.60;99.90
51619;DHT22;38518;53.164;5.430;2022-12-07T09:43:36;9.90;99.90
51619;DHT22;38518;53.164;5.430;2022-12-07T09:46:04;9.40;99.90
51619;DHT22;38518;53.164;5.430;2022-12-07T09:48:45;9.00;94.40
51619;DHT22;38518;53.164;5.430;2022-12-07T09:51:17;7.80;94.90
51619;DHT22;38518;53.164;5.430;2022-12-07T09:53:55;8.40;99.90
51619;DHT22;38518;53.164;5.430;2022-12-07T09:56:22;8.70;99.90
51619;DHT22;38518;53.164;5.430;2022-12-07T09:58:59;8.20;99.90
51619;DHT22;38518;53.164;5.430;2022-12-07T10:01:32;8.00;80.90
51619;DHT22;38518;53.164;5.430;2022-12-07T10:04:32;8.10;75.70
51619;DHT22;38518;53.164;5.430;2022-12-07T10:06:57;7.30;82.80
51619;DHT22;38518;53.164;5.430;2022-12-07T10:09:23;7.40;91.80
51619;DHT22;38518;53.164;5.430;2022-12-07T10:12:06;6.90;97.50
51619;DHT22;38518;53.164;5.430;2022-12-07T10:15:00;6.60;84.90
51619;DHT22;38518;53.164;5.430;2022-12-07T10:17:39;6.60;99.90
51619;DHT22;38518;53.164;5.430;2022-12-07T10:22:38;7.30;98.50
51619;DHT22;38518;53.164;5.430;2022-12-07T10:25:21;8.80;99.90
51619;DHT22;38518;53.164;5.430;2022-12-07T10:36:00;6.60;99.90
51619;DHT22;38518;53.164;5.430;2022-12-07T10:38:28;6.30;99.90
51619;DHT22;38518;53.164;5.430;2022-12-07T10:41:28;6.60;99.90
51619;DHT22;38518;53.164;5.430;2022-12-07T10:43:58;6.40;99.90
51619;DHT22;38518;53.164;5.430;2022-12-07T10:55:29;7.10;99.90
51619;DHT22;38518;53.164;5.430;2022-12-07T10:58:40;6.70;99.90
51619;DHT22;38518;53.164;5.430;2022-12-07T11:01:29;7.10;99.90
51619;DHT22;38518;53.164;5.430;2022-12-07T11:04:43;7.10;99.90
51619;DHT22;38518;53.164;5.430;2022-12-07T11:18:17;7.20;99.90
51619;DHT22;38518;53.164;5.430;2022-12-07T11:21:00;7.60;99.90
51619;DHT22;38518;53.164;5.430;2022-12-07T11:37:03;8.40;99.90
51619;DHT22;38518;53.164;5.430;2022-12-07T11:39:58;7.30;99.90
51619;DHT22;38518;53.164;5.430;2022-12-07T11:42:29;7.50;99.90
51619;DHT22;38518;53.164;5.430;2022-12-07T11:45:19;8.70;99.90
51619;DHT22;38518;53.164;5.430;2022-12-07T11:51:36;8.10;99.90
51619;DHT22;38518;53.164;5.430;2022-12-07T11:54:11;7.70;99.90
51619;DHT22;38518;53.164;5.430;2022-12-07T11:56:47;7.70;99.90
51619;DHT22;38518;53.164;5.430;2022-12-07T11:59:59;8.10;99.90
51619;DHT22;38518;53.164;5.430;2022-12-07T12:02:36;8.00;99.90
51619;DHT22;38518;53.164;5.430;2022-12-07T12:08:35;7.90;99.90
51619;DHT22;38518;53.164;5.430;2022-12-07T12:22:25;8.10;99.90
51619;DHT22;38518;53.164;5.430;2022-12-07T12:24:54;7.60;95.60
51619;DHT22;38518;53.164;5.430;2022-12-07T12:27:27;7.30;99.90
51619;DHT22;38518;53.164;5.430;2022-12-07T12:30:01;7.10;82.30
51619;DHT22;38518;53.164;5.430;2022-12-07T12:32:45;7.90;96.30
51619;DHT22;38518;53.164;5.430;2022-12-07T12:35:33;7.20;99.90
51619;DHT22;38518;53.164;5.430;2022-12-07T12:40:55;7.40;99.90
51619;DHT22;38518;53.164;5.430;2022-12-07T12:43:48;7.30;99.90
51619;DHT22;38518;53.164;5.430;2022-12-07T12:51:51;8.00;99.90
51619;DHT22;38518;53.164;5.430;2022-12-07T12:54:34;4.40;99.90
51619;DHT22;38518;53.164;5.430;2022-12-07T13:00:23;6.60;99.90
51619;DHT22;38518;53.164;5.430;2022-12-07T13:02:58;7.10;99.90
51619;DHT22;38518;53.164;5.430;2022-12-07T13:05:42;6.30;99.90
51619;DHT22;38518;53.164;5.430;2022-12-07T13:08:35;6.30;99.90
51619;DHT22;38518;53.164;5.430;2022-12-07T13:11:40;6.60;99.90
51619;DHT22;38518;53.164;5.430;2022-12-07T13:20:55;6.70;99.90
51619;DHT22;38518;53.164;5.430;2022-12-07T13:26:35;6.30;99.90
51619;DHT22;38518;53.164;5.430;2022-12-07T13:31:46;6.40;99.90
51619;DHT22;38518;53.164;5.430;2022-12-07T13:34:35;6.30;99.90
51619;DHT22;38518;53.164;5.430;2022-12-07T13:37:12;5.40;99.90
51619;DHT22;38518;53.164;5.430;2022-12-07T13:39:53;5.90;99.90
51619;DHT22;38518;53.164;5.430;2022-12-07T13:42:35;5.60;99.90
51619;DHT22;38518;53.164;5.430;2022-12-07T13:45:22;5.70;99.90
51619;DHT22;38518;53.164;5.430;2022-12-07T13:48:15;5.80;99.90
51619;DHT22;38518;53.164;5.430;2022-12-07T13:50:55;7.30;99.90
51619;DHT22;38518;53.164;5.430;2022-12-07T13:53:22;5.40;99.90
51619;DHT22;38518;53.164;5.430;2022-12-07T13:55:51;5.10;99.90
51619;DHT22;38518;53.164;5.430;2022-12-07T13:58:17;7.00;99.90
51619;DHT22;38518;53.164;5.430;2022-12-07T14:00:43;6.00;99.90
51619;DHT22;38518;53.164;5.430;2022-12-07T14:05:40;6.30;99.90
51619;DHT22;38518;53.164;5.430;2022-12-07T14:10:54;6.10;99.90
51619;DHT22;38518;53.164;5.430;2022-12-07T14:13:44;6.80;99.90
51619;DHT22;38518;53.164;5.430;2022-12-07T14:16:26;5.00;99.90
51619;DHT22;38518;53.164;5.430;2022-12-07T14:18:54;6.30;99.90
51619;DHT22;38518;53.164;5.430;2022-12-07T14:21:22;5.10;99.90
51619;DHT22;38518;53.164;5.430;2022-12-07T14:24:12;4.90;99.90
51619;DHT22;38518;53.164;5.430;2022-12-07T14:26:39;5.60;99.90
51619;DHT22;38518;53.164;5.430;2022-12-07T14:29:32;5.40;99.90
51619;DHT22;38518;53.164;5.430;2022-12-07T14:35:11;5.40;99.90
51619;DHT22;38518;53.164;5.430;2022-12-07T14:37:39;4.80;99.90
51619;DHT22;38518;53.164;5.430;2022-12-07T14:40:06;5.50;99.90
51619;DHT22;38518;53.164;5.430;2022-12-07T14:42:33;4.90;99.90
51619;DHT22;38518;53.164;5.430;2022-12-07T14:45:00;5.90;99.90
51619;DHT22;38518;53.164;5.430;2022-12-07T14:47:26;6.00;99.90
51619;DHT22;38518;53.164;5.430;2022-12-07T14:49:52;4.80;99.90
51619;DHT22;38518;53.164;5.430;2022-12-07T14:52:25;6.10;99.90
51619;DHT22;38518;53.164;5.430;2022-12-07T14:54:54;4.80;99.90
51619;DHT22;38518;53.164;5.430;2022-12-07T14:57:23;4.60;99.90
51619;DHT22;38518;53.164;5.430;2022-12-07T14:59:49;5.10;99.90
51619;DHT22;38518;53.164;5.430;2022-12-07T15:02:16;5.10;99.90
51619;DHT22;38518;53.164;5.430;2022-12-07T15:04:42;5.20;99.90
51619;DHT22;38518;53.164;5.430;2022-12-07T15:07:19;6.00;99.90
51619;DHT22;38518;53.164;5.430;2022-12-07T15:09:46;4.80;99.90
51619;DHT22;38518;53.164;5.430;2022-12-07T15:12:12;6.60;99.90
51619;DHT22;38518;53.164;5.430;2022-12-07T15:14:38;5.80;99.90
51619;DHT22;38518;53.164;5.430;2022-12-07T15:17:04;5.80;99.90
51619;DHT22;38518;53.164;5.430;2022-12-07T15:19:30;3.90;99.90
51619;DHT22;38518;53.164;5.430;2022-12-07T15:21:56;4.80;99.90
51619;DHT22;38518;53.164;5.430;2022-12-07T15:24:23;4.70;99.90
51619;DHT22;38518;53.164;5.430;2022-12-07T15:26:49;5.60;99.90
51619;DHT22;38518;53.164;5.430;2022-12-07T15:29:15;5.20;99.90
51619;DHT22;38518;53.164;5.430;2022-12-07T15:31:42;3.90;99.90
51619;DHT22;38518;53.164;5.430;2022-12-07T15:34:08;3.50;99.90
51619;DHT22;38518;53.164;5.430;2022-12-07T15:36:34;5.30;99.90
51619;DHT22;38518;53.164;5.430;2022-12-07T15:39:01;5.20;99.90
51619;DHT22;38518;53.164;5.430;2022-12-07T15:41:27;3.80;99.90
51619;DHT22;38518;53.164;5.430;2022-12-07T15:43:53;5.50;1.00
51619;DHT22;38518;53.164;5.430;2022-12-07T15:46:46;5.10;1.00
51619;DHT22;38518;53.164;5.430;2022-12-07T15:49:14;5.40;1.00
51619;DHT22;38518;53.164;5.430;2022-12-07T15:51:41;4.60;1.00
51619;DHT22;38518;53.164;5.430;2022-12-07T15:54:19;4.50;1.00
51619;DHT22;38518;53.164;5.430;2022-12-07T15:56:47;4.20;1.00
51619;DHT22;38518;53.164;5.430;2022-12-07T15:59:13;5.30;1.00
51619;DHT22;38518;53.164;5.430;2022-12-07T16:01:39;4.50;1.00
51619;DHT22;38518;53.164;5.430;2022-12-07T16:04:08;4.70;1.00
51619;DHT22;38518;53.164;5.430;2022-12-07T16:06:34;5.60;1.00
51619;DHT22;38518;53.164;5.430;2022-12-07T16:09:00;5.70;1.00
51619;DHT22;38518;53.164;5.430;2022-12-07T16:11:29;5.40;1.00
51619;DHT22;38518;53.164;5.430;2022-12-07T16:13:57;5.10;1.00
51619;DHT22;38518;53.164;5.430;2022-12-07T16:16:23;4.30;1.00
51619;DHT22;38518;53.164;5.430;2022-12-07T16:18:50;4.50;1.00
51619;DHT22;38518;53.164;5.430;2022-12-07T16:21:17;6.30;1.00
51619;DHT22;38518;53.164;5.430;2022-12-07T16:23:50;4.30;1.00
51619;DHT22;38518;53.164;5.430;2022-12-07T16:26:19;4.10;1.00
51619;DHT22;38518;53.164;5.430;2022-12-07T16:28:48;4.60;1.00
51619;DHT22;38518;53.164;5.430;2022-12-07T16:31:18;4.20;1.00
51619;DHT22;38518;53.164;5.430;2022-12-07T16:33:45;4.60;1.00
51619;DHT22;38518;53.164;5.430;2022-12-07T16:36:12;5.20;1.00
51619;DHT22;38518;53.164;5.430;2022-12-07T16:38:39;5.80;1.00
51619;DHT22;38518;53.164;5.430;2022-12-07T16:41:06;4.10;1.00
51619;DHT22;38518;53.164;5.430;2022-12-07T16:43:32;3.80;1.00
51619;DHT22;38518;53.164;5.430;2022-12-07T16:45:58;3.80;1.00
51619;DHT22;38518;53.164;5.430;2022-12-07T16:48:26;5.00;1.00
51619;DHT22;38518;53.164;5.430;2022-12-07T16:50:52;4.80;1.00
51619;DHT22;38518;53.164;5.430;2022-12-07T16:53:20;4.50;1.00
51619;DHT22;38518;53.164;5.430;2022-12-07T16:55:47;3.70;1.00
51619;DHT22;38518;53.164;5.430;2022-12-07T16:58:21;5.10;1.00
51619;DHT22;38518;53.164;5.430;2022-12-07T17:00:47;4.10;1.00
51619;DHT22;38518;53.164;5.430;2022-12-07T17:03:22;5.40;1.00
51619;DHT22;38518;53.164;5.430;2022-12-07T17:05:48;4.90;1.00
51619;DHT22;38518;53.164;5.430;2022-12-07T17:08:14;4.50;1.00
51619;DHT22;38518;53.164;5.430;2022-12-07T17:10:42;3.80;1.00
51619;DHT22;38518;53.164;5.430;2022-12-07T17:13:09;4.40;1.00
51619;DHT22;38518;53.164;5.430;2022-12-07T17:16:03;4.50;1.00
51619;DHT22;38518;53.164;5.430;2022-12-07T17:18:33;4.40;99.90
51619;DHT22;38518;53.164;5.430;2022-12-07T17:21:07;5.20;99.90
51619;DHT22;38518;53.164;5.430;2022-12-07T17:23:35;3.70;99.90
51619;DHT22;38518;53.164;5.430;2022-12-07T17:26:09;5.20;99.90
51619;DHT22;38518;53.164;5.430;2022-12-07T17:28:36;4.90;99.90
51619;DHT22;38518;53.164;5.430;2022-12-07T17:31:05;5.00;99.90
51619;DHT22;38518;53.164;5.430;2022-12-07T17:33:32;3.90;99.90
51619;DHT22;38518;53.164;5.430;2022-12-07T17:35:58;5.40;99.90
51619;DHT22;38518;53.164;5.430;2022-12-07T17:38:25;5.20;99.90
51619;DHT22;38518;53.164;5.430;2022-12-07T17:40:52;3.90;99.90
51619;DHT22;38518;53.164;5.430;2022-12-07T17:43:18;4.80;1.00
51619;DHT22;38518;53.164;5.430;2022-12-07T17:45:44;4.90;1.00
51619;DHT22;38518;53.164;5.430;2022-12-07T17:48:10;4.70;1.00
51619;DHT22;38518;53.164;5.430;2022-12-07T17:50:39;5.30;1.00
51619;DHT22;38518;53.164;5.430;2022-12-07T17:53:23;5.50;1.00
51619;DHT22;38518;53.164;5.430;2022-12-07T17:55:52;4.10;1.00
51619;DHT22;38518;53.164;5.430;2022-12-07T17:58:19;4.10;1.00
51619;DHT22;38518;53.164;5.430;2022-12-07T18:00:45;4.70;1.00
51619;DHT22;38518;53.164;5.430;2022-12-07T18:03:13;2.50;1.00
51619;DHT22;38518;53.164;5.430;2022-12-07T18:05:42;4.10;1.00
51619;DHT22;38518;53.164;5.430;2022-12-07T18:08:09;4.70;1.00
51619;DHT22;38518;53.164;5.430;2022-12-07T18:10:35;4.80;1.00
51619;DHT22;38518;53.164;5.430;2022-12-07T18:13:01;5.60;1.00
51619;DHT22;38518;53.164;5.430;2022-12-07T18:15:45;5.40;99.90
51619;DHT22;38518;53.164;5.430;2022-12-07T18:18:11;5.60;99.90
51619;DHT22;38518;53.164;5.430;2022-12-07T18:24:36;6.40;99.90
51619;DHT22;38518;53.164;5.430;2022-12-07T18:27:05;4.20;99.90